首页
METAR-TAF:

METAR-TAF

机场 :

朱麗安娜公主國際機場

荷屬聖馬丁, 荷属安的列斯

纬度: 18-03N, 经度: 063-07W, 海拔: 4米

当前天气观测

该预报发布于17分钟前的18:00 UTC
风速15节,风向东转东北,在东北之间变化
温度 32°C
湿度 56%
气压 1017 hPa
能见度10公里或以上
少量云 , 积雨云.
少量云层高于1800英尺

METAR: TNCM 151800Z 07015KT 040V100 9999 FEW///CB FEW018 32/22 Q1016 A3002 NOSIG RMK CB-DSNT SSE

时间: 14:17 (18:17 UTC)

预报

该预报发布于57分钟前的17:20 UTC
预报有效从15日的 18点(UTC)到 16日的 18点(UTC)
风速12节,风向东转东北,有时为18节阵风
能見度: 10公里
少量云层高于1800英尺
散云层高于3500英尺
从 15日的 2300点(UTC)
风速9节,风向
能見度: 10公里
散云层高于1800英尺
散云层高于3500英尺
附近有阵雨
从 16日的 1200点(UTC)
风速12节,风向东转东南
能見度: 10公里
散云层高于2200英尺
多云层高于5000英尺
小雨

TAF: TNCM 151720Z 1518/1618 07012G18KT P6SM FEW018 SCT035 FM152300 08009KT P6SM VCSH SCT018 SCT035 FM161200 11012KT P6SM -RA SCT022 BKN050

超过4000个机场的气象观测和天气预报(METAR&TAF报告)。

可查询的气象台以黄色和红色小点在地图上表示。

将鼠标移到小点上方,可查看气象台名称。

然后点击查看天气观测和预报。

如需切换地图:点击带黑十字的绿色按钮放大地图;点击带横线的绿色按钮缩小地图;或者点击绿色箭头查看邻近地区的地图。


METAR-TAF: